sensor_id;sensor_type;location;lat;lon;timestamp;P1;durP1;ratioP1;P2;durP2;ratioP2
18720;SDS011;9489;50.948;3.114;2023-07-31T00:00:44;18.55;;;8.70;;
18720;SDS011;9489;50.948;3.114;2023-07-31T00:03:11;19.48;;;8.52;;
18720;SDS011;9489;50.948;3.114;2023-07-31T00:05:37;21.00;;;8.25;;
18720;SDS011;9489;50.948;3.114;2023-07-31T00:08:02;16.55;;;7.93;;
18720;SDS011;9489;50.948;3.114;2023-07-31T00:10:28;19.95;;;8.70;;
18720;SDS011;9489;50.948;3.114;2023-07-31T00:12:53;20.55;;;8.27;;
18720;SDS011;9489;50.948;3.114;2023-07-31T00:15:19;15.32;;;7.82;;
18720;SDS011;9489;50.948;3.114;2023-07-31T00:17:45;15.45;;;7.60;;
18720;SDS011;9489;50.948;3.114;2023-07-31T00:20:10;21.60;;;8.85;;
18720;SDS011;9489;50.948;3.114;2023-07-31T00:22:36;18.73;;;8.07;;
18720;SDS011;9489;50.948;3.114;2023-07-31T00:25:02;12.00;;;7.97;;
18720;SDS011;9489;50.948;3.114;2023-07-31T00:27:27;16.27;;;7.80;;
18720;SDS011;9489;50.948;3.114;2023-07-31T00:29:53;15.77;;;7.35;;
18720;SDS011;9489;50.948;3.114;2023-07-31T00:32:18;16.42;;;7.88;;
18720;SDS011;9489;50.948;3.114;2023-07-31T00:34:44;14.52;;;7.00;;
18720;SDS011;9489;50.948;3.114;2023-07-31T00:37:10;16.17;;;8.43;;
18720;SDS011;9489;50.948;3.114;2023-07-31T00:39:35;18.10;;;8.52;;
18720;SDS011;9489;50.948;3.114;2023-07-31T00:42:01;18.35;;;6.53;;
18720;SDS011;9489;50.948;3.114;2023-07-31T00:44:28;18.40;;;8.40;;
18720;SDS011;9489;50.948;3.114;2023-07-31T00:46:53;15.20;;;7.35;;
18720;SDS011;9489;50.948;3.114;2023-07-31T00:49:21;14.23;;;7.53;;
18720;SDS011;9489;50.948;3.114;2023-07-31T00:51:47;16.17;;;7.47;;
18720;SDS011;9489;50.948;3.114;2023-07-31T00:54:13;17.08;;;7.60;;
18720;SDS011;9489;50.948;3.114;2023-07-31T00:56:38;16.00;;;7.05;;
18720;SDS011;9489;50.948;3.114;2023-07-31T00:59:06;13.57;;;7.22;;
18720;SDS011;9489;50.948;3.114;2023-07-31T01:01:32;18.70;;;7.28;;
18720;SDS011;9489;50.948;3.114;2023-07-31T01:03:58;15.70;;;7.07;;
18720;SDS011;9489;50.948;3.114;2023-07-31T01:08:54;17.23;;;6.60;;
18720;SDS011;9489;50.948;3.114;2023-07-31T01:11:27;14.55;;;7.85;;
18720;SDS011;9489;50.948;3.114;2023-07-31T01:13:55;12.80;;;6.30;;
18720;SDS011;9489;50.948;3.114;2023-07-31T01:16:21;15.07;;;6.93;;
18720;SDS011;9489;50.948;3.114;2023-07-31T01:18:47;13.68;;;7.28;;
18720;SDS011;9489;50.948;3.114;2023-07-31T01:26:36;13.20;;;6.07;;
18720;SDS011;9489;50.948;3.114;2023-07-31T01:29:20;16.25;;;6.43;;
18720;SDS011;9489;50.948;3.114;2023-07-31T01:31:48;15.02;;;6.63;;
18720;SDS011;9489;50.948;3.114;2023-07-31T01:34:17;13.88;;;6.38;;
18720;SDS011;9489;50.948;3.114;2023-07-31T01:36:43;17.23;;;7.00;;
18720;SDS011;9489;50.948;3.114;2023-07-31T01:39:09;14.45;;;6.30;;
18720;SDS011;9489;50.948;3.114;2023-07-31T01:41:35;14.10;;;6.97;;
18720;SDS011;9489;50.948;3.114;2023-07-31T01:44:00;15.85;;;6.30;;
18720;SDS011;9489;50.948;3.114;2023-07-31T01:46:26;13.23;;;5.93;;
18720;SDS011;9489;50.948;3.114;2023-07-31T01:48:51;15.25;;;6.40;;
18720;SDS011;9489;50.948;3.114;2023-07-31T01:51:17;12.85;;;6.28;;
18720;SDS011;9489;50.948;3.114;2023-07-31T01:53:43;13.63;;;6.40;;
18720;SDS011;9489;50.948;3.114;2023-07-31T01:56:08;14.88;;;6.45;;
18720;SDS011;9489;50.948;3.114;2023-07-31T01:58:34;13.30;;;6.43;;
18720;SDS011;9489;50.948;3.114;2023-07-31T02:00:59;12.60;;;5.82;;
18720;SDS011;9489;50.948;3.114;2023-07-31T02:03:25;12.23;;;6.18;;
18720;SDS011;9489;50.948;3.114;2023-07-31T02:05:50;12.55;;;5.78;;
18720;SDS011;9489;50.948;3.114;2023-07-31T02:08:16;15.98;;;6.20;;
18720;SDS011;9489;50.948;3.114;2023-07-31T02:10:42;12.50;;;6.03;;
18720;SDS011;9489;50.948;3.114;2023-07-31T02:13:08;13.23;;;6.05;;
18720;SDS011;9489;50.948;3.114;2023-07-31T02:15:34;15.73;;;6.85;;
18720;SDS011;9489;50.948;3.114;2023-07-31T02:18:00;15.73;;;6.45;;
18720;SDS011;9489;50.948;3.114;2023-07-31T02:20:25;11.52;;;6.22;;
18720;SDS011;9489;50.948;3.114;2023-07-31T02:22:51;11.75;;;5.70;;
18720;SDS011;9489;50.948;3.114;2023-07-31T02:25:17;12.45;;;6.25;;
18720;SDS011;9489;50.948;3.114;2023-07-31T02:27:42;13.23;;;5.63;;
18720;SDS011;9489;50.948;3.114;2023-07-31T02:30:08;11.98;;;6.13;;
18720;SDS011;9489;50.948;3.114;2023-07-31T02:32:34;11.73;;;5.85;;
18720;SDS011;9489;50.948;3.114;2023-07-31T02:34:59;10.32;;;5.90;;
18720;SDS011;9489;50.948;3.114;2023-07-31T02:37:25;11.88;;;5.88;;
18720;SDS011;9489;50.948;3.114;2023-07-31T02:39:53;11.00;;;5.40;;
18720;SDS011;9489;50.948;3.114;2023-07-31T02:42:19;11.75;;;5.80;;
18720;SDS011;9489;50.948;3.114;2023-07-31T02:44:44;10.90;;;6.03;;
18720;SDS011;9489;50.948;3.114;2023-07-31T02:47:10;13.05;;;5.78;;
18720;SDS011;9489;50.948;3.114;2023-07-31T02:49:35;13.63;;;5.95;;
18720;SDS011;9489;50.948;3.114;2023-07-31T02:52:01;8.60;;;5.78;;
18720;SDS011;9489;50.948;3.114;2023-07-31T02:54:27;12.07;;;6.43;;
18720;SDS011;9489;50.948;3.114;2023-07-31T02:56:52;12.95;;;6.50;;
18720;SDS011;9489;50.948;3.114;2023-07-31T02:59:18;11.20;;;5.70;;
18720;SDS011;9489;50.948;3.114;2023-07-31T03:01:44;11.40;;;6.07;;
18720;SDS011;9489;50.948;3.114;2023-07-31T03:04:09;11.77;;;6.32;;
18720;SDS011;9489;50.948;3.114;2023-07-31T03:06:35;11.15;;;6.15;;
18720;SDS011;9489;50.948;3.114;2023-07-31T03:09:00;13.48;;;5.90;;
18720;SDS011;9489;50.948;3.114;2023-07-31T03:11:26;12.63;;;6.75;;
18720;SDS011;9489;50.948;3.114;2023-07-31T03:13:52;10.40;;;6.85;;
18720;SDS011;9489;50.948;3.114;2023-07-31T03:16:17;14.05;;;6.13;;
18720;SDS011;9489;50.948;3.114;2023-07-31T03:18:43;12.57;;;6.07;;
18720;SDS011;9489;50.948;3.114;2023-07-31T03:21:09;12.98;;;6.20;;
18720;SDS011;9489;50.948;3.114;2023-07-31T03:23:34;9.98;;;5.70;;
18720;SDS011;9489;50.948;3.114;2023-07-31T03:26:01;10.45;;;6.03;;
18720;SDS011;9489;50.948;3.114;2023-07-31T03:28:30;13.25;;;5.80;;
18720;SDS011;9489;50.948;3.114;2023-07-31T03:30:56;13.02;;;6.88;;
18720;SDS011;9489;50.948;3.114;2023-07-31T03:33:22;12.57;;;6.97;;
18720;SDS011;9489;50.948;3.114;2023-07-31T03:35:47;14.80;;;6.22;;
18720;SDS011;9489;50.948;3.114;2023-07-31T03:38:13;14.38;;;6.68;;
18720;SDS011;9489;50.948;3.114;2023-07-31T03:40:39;16.10;;;6.45;;
18720;SDS011;9489;50.948;3.114;2023-07-31T03:43:05;11.20;;;5.70;;
18720;SDS011;9489;50.948;3.114;2023-07-31T03:45:30;12.35;;;6.13;;
18720;SDS011;9489;50.948;3.114;2023-07-31T03:47:56;9.95;;;5.45;;
18720;SDS011;9489;50.948;3.114;2023-07-31T03:50:22;9.77;;;5.30;;
18720;SDS011;9489;50.948;3.114;2023-07-31T03:52:48;9.30;;;5.03;;
18720;SDS011;9489;50.948;3.114;2023-07-31T03:55:13;10.95;;;5.00;;
18720;SDS011;9489;50.948;3.114;2023-07-31T03:57:39;11.43;;;5.50;;
18720;SDS011;9489;50.948;3.114;2023-07-31T04:00:05;9.23;;;5.63;;
18720;SDS011;9489;50.948;3.114;2023-07-31T04:02:31;9.95;;;5.72;;
18720;SDS011;9489;50.948;3.114;2023-07-31T04:04:57;10.70;;;5.75;;
18720;SDS011;9489;50.948;3.114;2023-07-31T04:07:22;10.43;;;5.53;;
18720;SDS011;9489;50.948;3.114;2023-07-31T04:09:48;9.50;;;4.75;;
18720;SDS011;9489;50.948;3.114;2023-07-31T04:12:13;8.07;;;5.32;;
18720;SDS011;9489;50.948;3.114;2023-07-31T04:14:39;11.43;;;5.13;;
18720;SDS011;9489;50.948;3.114;2023-07-31T04:17:05;11.07;;;5.50;;
18720;SDS011;9489;50.948;3.114;2023-07-31T04:19:30;10.07;;;5.32;;
18720;SDS011;9489;50.948;3.114;2023-07-31T04:21:56;9.65;;;5.13;;
18720;SDS011;9489;50.948;3.114;2023-07-31T04:24:22;8.57;;;5.00;;
18720;SDS011;9489;50.948;3.114;2023-07-31T04:26:50;7.40;;;4.65;;
18720;SDS011;9489;50.948;3.114;2023-07-31T04:29:17;10.25;;;5.68;;
18720;SDS011;9489;50.948;3.114;2023-07-31T04:31:43;10.98;;;5.38;;
18720;SDS011;9489;50.948;3.114;2023-07-31T04:34:08;8.25;;;4.70;;
18720;SDS011;9489;50.948;3.114;2023-07-31T04:36:34;7.72;;;4.40;;
18720;SDS011;9489;50.948;3.114;2023-07-31T04:39:00;10.98;;;5.20;;
18720;SDS011;9489;50.948;3.114;2023-07-31T04:41:26;9.30;;;5.15;;
18720;SDS011;9489;50.948;3.114;2023-07-31T04:43:53;8.65;;;4.45;;
18720;SDS011;9489;50.948;3.114;2023-07-31T04:46:18;7.50;;;4.40;;
18720;SDS011;9489;50.948;3.114;2023-07-31T04:48:44;8.82;;;4.35;;
18720;SDS011;9489;50.948;3.114;2023-07-31T04:51:10;11.43;;;5.30;;
18720;SDS011;9489;50.948;3.114;2023-07-31T04:53:35;7.78;;;5.03;;
18720;SDS011;9489;50.948;3.114;2023-07-31T04:56:01;4.80;;;4.07;;
18720;SDS011;9489;50.948;3.114;2023-07-31T04:58:27;7.03;;;3.83;;
18720;SDS011;9489;50.948;3.114;2023-07-31T05:00:53;6.40;;;4.57;;
18720;SDS011;9489;50.948;3.114;2023-07-31T05:03:18;8.70;;;4.75;;
18720;SDS011;9489;50.948;3.114;2023-07-31T05:05:44;6.30;;;4.30;;
18720;SDS011;9489;50.948;3.114;2023-07-31T05:08:10;6.15;;;4.50;;
18720;SDS011;9489;50.948;3.114;2023-07-31T05:10:35;8.32;;;5.38;;
18720;SDS011;9489;50.948;3.114;2023-07-31T05:13:01;8.88;;;4.82;;
18720;SDS011;9489;50.948;3.114;2023-07-31T05:15:27;7.63;;;3.72;;
18720;SDS011;9489;50.948;3.114;2023-07-31T05:17:53;6.15;;;5.15;;
18720;SDS011;9489;50.948;3.114;2023-07-31T05:20:19;7.28;;;4.88;;
18720;SDS011;9489;50.948;3.114;2023-07-31T05:22:44;7.90;;;5.55;;
18720;SDS011;9489;50.948;3.114;2023-07-31T05:25:10;8.45;;;5.18;;
18720;SDS011;9489;50.948;3.114;2023-07-31T05:27:36;10.73;;;5.88;;
18720;SDS011;9489;50.948;3.114;2023-07-31T05:30:01;8.48;;;5.45;;
18720;SDS011;9489;50.948;3.114;2023-07-31T05:32:27;12.20;;;5.90;;
18720;SDS011;9489;50.948;3.114;2023-07-31T05:34:53;10.45;;;5.78;;
18720;SDS011;9489;50.948;3.114;2023-07-31T05:37:19;6.60;;;5.38;;
18720;SDS011;9489;50.948;3.114;2023-07-31T05:39:45;9.50;;;6.15;;
18720;SDS011;9489;50.948;3.114;2023-07-31T05:42:10;8.55;;;5.40;;
18720;SDS011;9489;50.948;3.114;2023-07-31T05:44:36;8.15;;;5.43;;
18720;SDS011;9489;50.948;3.114;2023-07-31T05:47:02;10.18;;;5.80;;
18720;SDS011;9489;50.948;3.114;2023-07-31T05:49:27;9.80;;;5.70;;
18720;SDS011;9489;50.948;3.114;2023-07-31T05:51:53;10.20;;;5.18;;
18720;SDS011;9489;50.948;3.114;2023-07-31T05:54:19;7.65;;;5.50;;
18720;SDS011;9489;50.948;3.114;2023-07-31T05:56:44;7.88;;;5.15;;
18720;SDS011;9489;50.948;3.114;2023-07-31T05:59:11;8.90;;;5.13;;
18720;SDS011;9489;50.948;3.114;2023-07-31T06:01:38;8.25;;;5.25;;
18720;SDS011;9489;50.948;3.114;2023-07-31T06:04:04;9.45;;;5.28;;
18720;SDS011;9489;50.948;3.114;2023-07-31T06:06:30;8.60;;;4.82;;
18720;SDS011;9489;50.948;3.114;2023-07-31T06:08:56;9.40;;;5.15;;
18720;SDS011;9489;50.948;3.114;2023-07-31T06:11:21;8.02;;;4.35;;
18720;SDS011;9489;50.948;3.114;2023-07-31T06:13:47;7.00;;;4.35;;
18720;SDS011;9489;50.948;3.114;2023-07-31T06:16:14;8.70;;;4.78;;
18720;SDS011;9489;50.948;3.114;2023-07-31T06:18:40;8.60;;;4.90;;
18720;SDS011;9489;50.948;3.114;2023-07-31T06:21:07;8.40;;;5.00;;
18720;SDS011;9489;50.948;3.114;2023-07-31T06:23:33;8.00;;;5.30;;
18720;SDS011;9489;50.948;3.114;2023-07-31T06:25:58;8.10;;;5.07;;
18720;SDS011;9489;50.948;3.114;2023-07-31T06:28:31;7.63;;;5.07;;
18720;SDS011;9489;50.948;3.114;2023-07-31T06:30:57;6.65;;;4.63;;
18720;SDS011;9489;50.948;3.114;2023-07-31T06:33:23;8.57;;;4.50;;
18720;SDS011;9489;50.948;3.114;2023-07-31T06:35:50;8.02;;;4.40;;
18720;SDS011;9489;50.948;3.114;2023-07-31T06:38:15;6.80;;;4.50;;
18720;SDS011;9489;50.948;3.114;2023-07-31T06:40:43;6.13;;;4.38;;
18720;SDS011;9489;50.948;3.114;2023-07-31T06:43:09;6.63;;;4.35;;
18720;SDS011;9489;50.948;3.114;2023-07-31T06:45:35;7.00;;;4.18;;
18720;SDS011;9489;50.948;3.114;2023-07-31T06:48:02;7.28;;;4.18;;
18720;SDS011;9489;50.948;3.114;2023-07-31T06:50:29;6.78;;;3.90;;
18720;SDS011;9489;50.948;3.114;2023-07-31T06:52:57;6.57;;;4.07;;
18720;SDS011;9489;50.948;3.114;2023-07-31T06:55:23;6.18;;;3.63;;
18720;SDS011;9489;50.948;3.114;2023-07-31T06:57:51;5.53;;;3.35;;
18720;SDS011;9489;50.948;3.114;2023-07-31T07:00:18;6.80;;;3.97;;
18720;SDS011;9489;50.948;3.114;2023-07-31T07:02:44;6.35;;;3.65;;
18720;SDS011;9489;50.948;3.114;2023-07-31T07:05:12;4.78;;;2.95;;
18720;SDS011;9489;50.948;3.114;2023-07-31T07:07:38;4.97;;;3.30;;
18720;SDS011;9489;50.948;3.114;2023-07-31T07:10:04;6.30;;;3.70;;
18720;SDS011;9489;50.948;3.114;2023-07-31T07:12:31;8.13;;;4.18;;
18720;SDS011;9489;50.948;3.114;2023-07-31T07:14:58;4.90;;;3.70;;
18720;SDS011;9489;50.948;3.114;2023-07-31T07:17:24;5.75;;;4.05;;
18720;SDS011;9489;50.948;3.114;2023-07-31T07:19:50;4.18;;;3.42;;
18720;SDS011;9489;50.948;3.114;2023-07-31T07:22:16;3.67;;;3.33;;
18720;SDS011;9489;50.948;3.114;2023-07-31T07:24:42;3.60;;;2.80;;
18720;SDS011;9489;50.948;3.114;2023-07-31T07:27:08;4.70;;;3.25;;
18720;SDS011;9489;50.948;3.114;2023-07-31T07:29:34;4.95;;;3.13;;
18720;SDS011;9489;50.948;3.114;2023-07-31T07:32:00;6.90;;;3.40;;
18720;SDS011;9489;50.948;3.114;2023-07-31T07:34:26;4.90;;;2.92;;
18720;SDS011;9489;50.948;3.114;2023-07-31T07:36:52;3.97;;;3.35;;
18720;SDS011;9489;50.948;3.114;2023-07-31T07:39:18;4.93;;;2.97;;
18720;SDS011;9489;50.948;3.114;2023-07-31T07:41:45;3.80;;;3.17;;
18720;SDS011;9489;50.948;3.114;2023-07-31T07:44:11;6.50;;;3.40;;
18720;SDS011;9489;50.948;3.114;2023-07-31T07:46:37;3.95;;;3.08;;
18720;SDS011;9489;50.948;3.114;2023-07-31T07:49:03;5.53;;;3.13;;
18720;SDS011;9489;50.948;3.114;2023-07-31T07:51:28;5.40;;;3.38;;
18720;SDS011;9489;50.948;3.114;2023-07-31T07:53:55;6.45;;;3.83;;
18720;SDS011;9489;50.948;3.114;2023-07-31T07:56:21;3.92;;;3.13;;
18720;SDS011;9489;50.948;3.114;2023-07-31T07:58:48;3.55;;;3.25;;
18720;SDS011;9489;50.948;3.114;2023-07-31T08:01:15;3.70;;;3.13;;
18720;SDS011;9489;50.948;3.114;2023-07-31T08:03:41;4.20;;;3.15;;
18720;SDS011;9489;50.948;3.114;2023-07-31T08:06:06;3.53;;;3.13;;
18720;SDS011;9489;50.948;3.114;2023-07-31T08:08:34;3.55;;;2.88;;
18720;SDS011;9489;50.948;3.114;2023-07-31T08:11:00;3.45;;;3.15;;
18720;SDS011;9489;50.948;3.114;2023-07-31T08:13:26;3.85;;;3.40;;
18720;SDS011;9489;50.948;3.114;2023-07-31T08:15:52;3.65;;;3.08;;
18720;SDS011;9489;50.948;3.114;2023-07-31T08:18:17;4.65;;;3.20;;
18720;SDS011;9489;50.948;3.114;2023-07-31T08:20:44;3.80;;;3.40;;
18720;SDS011;9489;50.948;3.114;2023-07-31T08:23:10;4.38;;;3.55;;
18720;SDS011;9489;50.948;3.114;2023-07-31T08:25:36;4.75;;;3.63;;
18720;SDS011;9489;50.948;3.114;2023-07-31T08:28:05;3.80;;;3.50;;
18720;SDS011;9489;50.948;3.114;2023-07-31T08:30:31;4.03;;;3.60;;
18720;SDS011;9489;50.948;3.114;2023-07-31T08:32:58;4.35;;;3.67;;
18720;SDS011;9489;50.948;3.114;2023-07-31T08:35:24;3.75;;;3.55;;
18720;SDS011;9489;50.948;3.114;2023-07-31T08:37:50;4.88;;;4.40;;
18720;SDS011;9489;50.948;3.114;2023-07-31T08:40:16;4.40;;;4.05;;
18720;SDS011;9489;50.948;3.114;2023-07-31T08:42:48;6.13;;;4.65;;
18720;SDS011;9489;50.948;3.114;2023-07-31T08:45:15;4.40;;;3.90;;
18720;SDS011;9489;50.948;3.114;2023-07-31T08:47:44;4.43;;;4.03;;
18720;SDS011;9489;50.948;3.114;2023-07-31T08:50:15;4.68;;;4.28;;
18720;SDS011;9489;50.948;3.114;2023-07-31T08:52:42;6.43;;;4.00;;
18720;SDS011;9489;50.948;3.114;2023-07-31T08:55:08;5.68;;;4.18;;
18720;SDS011;9489;50.948;3.114;2023-07-31T08:57:35;4.90;;;4.50;;
18720;SDS011;9489;50.948;3.114;2023-07-31T09:00:02;4.55;;;4.10;;
18720;SDS011;9489;50.948;3.114;2023-07-31T09:02:46;13.15;;;5.05;;
18720;SDS011;9489;50.948;3.114;2023-07-31T09:05:17;5.47;;;4.95;;
18720;SDS011;9489;50.948;3.114;2023-07-31T09:07:43;5.15;;;4.68;;
18720;SDS011;9489;50.948;3.114;2023-07-31T09:10:12;5.18;;;4.75;;
18720;SDS011;9489;50.948;3.114;2023-07-31T09:12:38;5.90;;;4.22;;
18720;SDS011;9489;50.948;3.114;2023-07-31T09:15:04;6.43;;;5.32;;
18720;SDS011;9489;50.948;3.114;2023-07-31T09:17:31;5.85;;;5.35;;
18720;SDS011;9489;50.948;3.114;2023-07-31T09:19:58;6.60;;;5.57;;
18720;SDS011;9489;50.948;3.114;2023-07-31T09:22:38;5.88;;;5.22;;
18720;SDS011;9489;50.948;3.114;2023-07-31T09:25:20;6.25;;;5.65;;
18720;SDS011;9489;50.948;3.114;2023-07-31T09:27:55;6.63;;;5.10;;
18720;SDS011;9489;50.948;3.114;2023-07-31T09:30:25;8.07;;;5.80;;
18720;SDS011;9489;50.948;3.114;2023-07-31T09:32:52;6.53;;;5.32;;
18720;SDS011;9489;50.948;3.114;2023-07-31T09:35:30;8.25;;;6.15;;
18720;SDS011;9489;50.948;3.114;2023-07-31T09:37:58;7.05;;;5.55;;
18720;SDS011;9489;50.948;3.114;2023-07-31T09:40:45;7.82;;;5.75;;
18720;SDS011;9489;50.948;3.114;2023-07-31T09:43:18;6.97;;;5.13;;
18720;SDS011;9489;50.948;3.114;2023-07-31T09:45:45;5.93;;;5.05;;
18720;SDS011;9489;50.948;3.114;2023-07-31T09:48:15;5.85;;;5.13;;
18720;SDS011;9489;50.948;3.114;2023-07-31T09:50:43;7.43;;;5.65;;
18720;SDS011;9489;50.948;3.114;2023-07-31T09:53:10;7.30;;;5.57;;
18720;SDS011;9489;50.948;3.114;2023-07-31T09:55:36;6.85;;;4.93;;
18720;SDS011;9489;50.948;3.114;2023-07-31T09:58:06;7.85;;;5.63;;
18720;SDS011;9489;50.948;3.114;2023-07-31T10:00:34;6.88;;;5.72;;
18720;SDS011;9489;50.948;3.114;2023-07-31T10:03:00;8.82;;;5.85;;
18720;SDS011;9489;50.948;3.114;2023-07-31T10:05:33;6.97;;;5.55;;
18720;SDS011;9489;50.948;3.114;2023-07-31T10:08:00;8.23;;;5.93;;
18720;SDS011;9489;50.948;3.114;2023-07-31T10:10:26;6.30;;;5.70;;
18720;SDS011;9489;50.948;3.114;2023-07-31T10:12:53;7.78;;;6.20;;
18720;SDS011;9489;50.948;3.114;2023-07-31T10:15:20;8.20;;;5.25;;
18720;SDS011;9489;50.948;3.114;2023-07-31T10:17:48;6.32;;;5.20;;
18720;SDS011;9489;50.948;3.114;2023-07-31T10:20:15;7.53;;;5.50;;
18720;SDS011;9489;50.948;3.114;2023-07-31T10:22:42;6.10;;;5.22;;
18720;SDS011;9489;50.948;3.114;2023-07-31T10:25:08;5.85;;;4.78;;
18720;SDS011;9489;50.948;3.114;2023-07-31T10:27:41;6.15;;;4.47;;
18720;SDS011;9489;50.948;3.114;2023-07-31T10:30:16;6.28;;;4.82;;
18720;SDS011;9489;50.948;3.114;2023-07-31T10:32:43;8.50;;;5.18;;
18720;SDS011;9489;50.948;3.114;2023-07-31T10:35:10;7.93;;;4.60;;
18720;SDS011;9489;50.948;3.114;2023-07-31T10:40:26;6.47;;;4.50;;
18720;SDS011;9489;50.948;3.114;2023-07-31T10:42:52;5.28;;;4.65;;
18720;SDS011;9489;50.948;3.114;2023-07-31T10:48:12;5.00;;;4.10;;
18720;SDS011;9489;50.948;3.114;2023-07-31T10:50:46;6.03;;;4.38;;
18720;SDS011;9489;50.948;3.114;2023-07-31T10:53:36;5.22;;;4.60;;
18720;SDS011;9489;50.948;3.114;2023-07-31T10:56:03;5.85;;;4.07;;
18720;SDS011;9489;50.948;3.114;2023-07-31T10:58:30;6.03;;;4.60;;
18720;SDS011;9489;50.948;3.114;2023-07-31T11:00:58;6.85;;;4.32;;
18720;SDS011;9489;50.948;3.114;2023-07-31T11:03:46;5.40;;;4.10;;
18720;SDS011;9489;50.948;3.114;2023-07-31T11:06:14;6.05;;;4.00;;
18720;SDS011;9489;50.948;3.114;2023-07-31T11:08:47;5.20;;;3.85;;
18720;SDS011;9489;50.948;3.114;2023-07-31T11:11:16;4.65;;;4.20;;
18720;SDS011;9489;50.948;3.114;2023-07-31T11:16:09;6.57;;;4.72;;
18720;SDS011;9489;50.948;3.114;2023-07-31T11:18:35;5.53;;;4.78;;
18720;SDS011;9489;50.948;3.114;2023-07-31T11:21:03;5.10;;;4.60;;
18720;SDS011;9489;50.948;3.114;2023-07-31T11:23:28;5.75;;;4.35;;
18720;SDS011;9489;50.948;3.114;2023-07-31T11:25:57;5.40;;;4.13;;
18720;SDS011;9489;50.948;3.114;2023-07-31T11:28:24;5.80;;;4.82;;
18720;SDS011;9489;50.948;3.114;2023-07-31T11:30:50;4.55;;;4.15;;
18720;SDS011;9489;50.948;3.114;2023-07-31T11:33:16;7.50;;;4.70;;
18720;SDS011;9489;50.948;3.114;2023-07-31T11:35:44;6.00;;;4.43;;
18720;SDS011;9489;50.948;3.114;2023-07-31T11:40:52;5.10;;;4.38;;
18720;SDS011;9489;50.948;3.114;2023-07-31T11:43:22;4.97;;;4.50;;
18720;SDS011;9489;50.948;3.114;2023-07-31T11:45:49;5.57;;;4.45;;
18720;SDS011;9489;50.948;3.114;2023-07-31T11:50:53;4.82;;;3.88;;
18720;SDS011;9489;50.948;3.114;2023-07-31T11:53:44;5.32;;;4.05;;
18720;SDS011;9489;50.948;3.114;2023-07-31T11:56:07;3.55;;;3.10;;
18720;SDS011;9489;50.948;3.114;2023-07-31T11:58:36;4.10;;;3.75;;
18720;SDS011;9489;50.948;3.114;2023-07-31T12:01:03;4.25;;;3.75;;
18720;SDS011;9489;50.948;3.114;2023-07-31T12:03:30;4.78;;;3.50;;
18720;SDS011;9489;50.948;3.114;2023-07-31T12:05:58;5.57;;;3.67;;
18720;SDS011;9489;50.948;3.114;2023-07-31T12:08:24;4.63;;;4.10;;
18720;SDS011;9489;50.948;3.114;2023-07-31T12:10:51;4.85;;;3.38;;
18720;SDS011;9489;50.948;3.114;2023-07-31T12:13:21;5.03;;;3.70;;
18720;SDS011;9489;50.948;3.114;2023-07-31T12:15:48;4.40;;;4.00;;
18720;SDS011;9489;50.948;3.114;2023-07-31T12:18:19;4.40;;;4.00;;
18720;SDS011;9489;50.948;3.114;2023-07-31T12:20:46;5.95;;;4.47;;
18720;SDS011;9489;50.948;3.114;2023-07-31T12:23:22;5.72;;;4.22;;
18720;SDS011;9489;50.948;3.114;2023-07-31T12:26:08;5.97;;;4.65;;
18720;SDS011;9489;50.948;3.114;2023-07-31T12:28:36;5.60;;;5.13;;
18720;SDS011;9489;50.948;3.114;2023-07-31T12:31:03;5.88;;;5.38;;
18720;SDS011;9489;50.948;3.114;2023-07-31T12:33:30;5.63;;;5.13;;
18720;SDS011;9489;50.948;3.114;2023-07-31T12:35:57;5.65;;;5.10;;
18720;SDS011;9489;50.948;3.114;2023-07-31T12:38:25;5.63;;;5.10;;
18720;SDS011;9489;50.948;3.114;2023-07-31T12:40:51;5.60;;;5.15;;
18720;SDS011;9489;50.948;3.114;2023-07-31T12:43:17;5.75;;;5.13;;
18720;SDS011;9489;50.948;3.114;2023-07-31T12:45:42;5.40;;;4.93;;
18720;SDS011;9489;50.948;3.114;2023-07-31T12:48:08;5.72;;;5.22;;
18720;SDS011;9489;50.948;3.114;2023-07-31T12:50:33;5.70;;;5.20;;
18720;SDS011;9489;50.948;3.114;2023-07-31T12:53:01;5.93;;;5.43;;
18720;SDS011;9489;50.948;3.114;2023-07-31T12:55:28;6.20;;;5.70;;
18720;SDS011;9489;50.948;3.114;2023-07-31T12:57:55;6.40;;;5.60;;
18720;SDS011;9489;50.948;3.114;2023-07-31T13:00:21;5.30;;;4.80;;
18720;SDS011;9489;50.948;3.114;2023-07-31T13:02:47;4.93;;;4.45;;
18720;SDS011;9489;50.948;3.114;2023-07-31T13:05:13;6.30;;;4.47;;
18720;SDS011;9489;50.948;3.114;2023-07-31T13:07:39;4.72;;;4.03;;
18720;SDS011;9489;50.948;3.114;2023-07-31T13:10:05;4.28;;;3.38;;
18720;SDS011;9489;50.948;3.114;2023-07-31T13:12:32;4.22;;;3.83;;
18720;SDS011;9489;50.948;3.114;2023-07-31T13:14:58;3.65;;;3.35;;
18720;SDS011;9489;50.948;3.114;2023-07-31T13:17:24;3.63;;;3.10;;
18720;SDS011;9489;50.948;3.114;2023-07-31T13:19:50;3.63;;;3.10;;
18720;SDS011;9489;50.948;3.114;2023-07-31T13:22:15;3.42;;;3.13;;
18720;SDS011;9489;50.948;3.114;2023-07-31T13:24:41;3.67;;;3.38;;
18720;SDS011;9489;50.948;3.114;2023-07-31T13:27:06;3.65;;;2.90;;
18720;SDS011;9489;50.948;3.114;2023-07-31T13:29:32;4.13;;;3.00;;
18720;SDS011;9489;50.948;3.114;2023-07-31T13:31:58;3.95;;;3.50;;
18720;SDS011;9489;50.948;3.114;2023-07-31T13:34:24;5.07;;;3.50;;
18720;SDS011;9489;50.948;3.114;2023-07-31T13:36:49;4.30;;;3.50;;
18720;SDS011;9489;50.948;3.114;2023-07-31T13:39:15;3.42;;;3.10;;
18720;SDS011;9489;50.948;3.114;2023-07-31T13:41:41;5.13;;;3.38;;
18720;SDS011;9489;50.948;3.114;2023-07-31T13:44:06;2.95;;;2.75;;
18720;SDS011;9489;50.948;3.114;2023-07-31T13:46:32;2.70;;;2.50;;
18720;SDS011;9489;50.948;3.114;2023-07-31T13:48:58;2.08;;;1.90;;
18720;SDS011;9489;50.948;3.114;2023-07-31T13:51:25;2.00;;;1.80;;
18720;SDS011;9489;50.948;3.114;2023-07-31T13:53:50;1.67;;;1.50;;
18720;SDS011;9489;50.948;3.114;2023-07-31T13:56:16;1.70;;;1.60;;
18720;SDS011;9489;50.948;3.114;2023-07-31T13:58:42;1.60;;;1.50;;
18720;SDS011;9489;50.948;3.114;2023-07-31T14:01:08;1.60;;;1.50;;
18720;SDS011;9489;50.948;3.114;2023-07-31T14:03:33;1.92;;;1.60;;
18720;SDS011;9489;50.948;3.114;2023-07-31T14:05:59;3.17;;;2.00;;
18720;SDS011;9489;50.948;3.114;2023-07-31T14:08:25;1.90;;;1.50;;
18720;SDS011;9489;50.948;3.114;2023-07-31T14:10:51;1.25;;;1.20;;
18720;SDS011;9489;50.948;3.114;2023-07-31T14:13:16;2.55;;;1.52;;
18720;SDS011;9489;50.948;3.114;2023-07-31T14:15:42;1.23;;;1.13;;
18720;SDS011;9489;50.948;3.114;2023-07-31T14:18:08;1.13;;;1.02;;
18720;SDS011;9489;50.948;3.114;2023-07-31T14:20:34;1.85;;;1.10;;
18720;SDS011;9489;50.948;3.114;2023-07-31T14:22:59;1.30;;;1.20;;
18720;SDS011;9489;50.948;3.114;2023-07-31T14:25:25;0.95;;;0.95;;
18720;SDS011;9489;50.948;3.114;2023-07-31T14:27:51;1.02;;;0.93;;
18720;SDS011;9489;50.948;3.114;2023-07-31T14:30:17;1.15;;;1.05;;
18720;SDS011;9489;50.948;3.114;2023-07-31T14:32:43;0.90;;;0.90;;
18720;SDS011;9489;50.948;3.114;2023-07-31T14:35:09;0.82;;;0.82;;
18720;SDS011;9489;50.948;3.114;2023-07-31T14:37:42;1.13;;;0.93;;
18720;SDS011;9489;50.948;3.114;2023-07-31T14:40:09;0.80;;;0.80;;
18720;SDS011;9489;50.948;3.114;2023-07-31T14:42:37;0.80;;;0.80;;
18720;SDS011;9489;50.948;3.114;2023-07-31T14:45:04;1.90;;;1.10;;
18720;SDS011;9489;50.948;3.114;2023-07-31T14:47:31;1.15;;;1.13;;
18720;SDS011;9489;50.948;3.114;2023-07-31T14:49:57;1.52;;;1.10;;
18720;SDS011;9489;50.948;3.114;2023-07-31T14:52:23;1.20;;;1.10;;
18720;SDS011;9489;50.948;3.114;2023-07-31T14:54:49;1.70;;;1.00;;
18720;SDS011;9489;50.948;3.114;2023-07-31T14:57:15;1.17;;;1.10;;
18720;SDS011;9489;50.948;3.114;2023-07-31T14:59:40;1.48;;;1.38;;
18720;SDS011;9489;50.948;3.114;2023-07-31T15:02:07;1.00;;;1.00;;
18720;SDS011;9489;50.948;3.114;2023-07-31T15:04:34;1.20;;;1.00;;
18720;SDS011;9489;50.948;3.114;2023-07-31T15:07:00;1.10;;;1.02;;
18720;SDS011;9489;50.948;3.114;2023-07-31T15:09:26;1.10;;;1.10;;
18720;SDS011;9489;50.948;3.114;2023-07-31T15:11:52;1.17;;;0.90;;
18720;SDS011;9489;50.948;3.114;2023-07-31T15:14:17;1.45;;;1.35;;
18720;SDS011;9489;50.948;3.114;2023-07-31T15:16:43;1.27;;;1.17;;